createdAt,value
2019-05-15T00:00:13.643Z,5.31
2019-05-15T00:02:42.035Z,5.42
2019-05-15T00:05:10.406Z,5.14
2019-05-15T00:07:39.371Z,5.08
2019-05-15T00:10:08.729Z,5.16
2019-05-15T00:12:35.515Z,5.06
2019-05-15T00:15:09.359Z,5.06
2019-05-15T00:17:35.830Z,5.07
2019-05-15T00:22:40.397Z,5.03
2019-05-15T00:25:09.654Z,5.03
2019-05-15T00:27:38.773Z,5.06
2019-05-15T00:30:08.681Z,5.06
2019-05-15T00:32:38.993Z,5.08
2019-05-15T00:35:06.456Z,5.09
2019-05-15T00:37:34.791Z,5.18
2019-05-15T00:40:05.057Z,5.14
2019-05-15T00:42:33.399Z,5.26
2019-05-15T00:45:09.116Z,5.23
2019-05-15T00:47:35.905Z,5.18
2019-05-15T00:50:11.195Z,5.18
2019-05-15T00:52:39.619Z,5.29
2019-05-15T00:55:12.259Z,5.34
2019-05-15T00:57:40.631Z,5.54
2019-05-15T01:02:48.730Z,5.29
2019-05-15T01:07:49.744Z,5.26
2019-05-15T01:10:22.159Z,5.43
2019-05-15T01:12:51.448Z,5.27
2019-05-15T01:15:24.965Z,5.22
2019-05-15T01:17:53.305Z,5.29
2019-05-15T01:20:21.645Z,5.26
2019-05-15T01:22:49.983Z,5.23
2019-05-15T01:25:25.411Z,5.12
2019-05-15T01:27:59.530Z,5.05
2019-05-15T01:30:28.670Z,5.10
2019-05-15T01:32:56.224Z,5.10
2019-05-15T01:35:24.577Z,5.12
2019-05-15T01:37:58.876Z,5.12
2019-05-15T01:40:28.919Z,5.23
2019-05-15T01:42:58.303Z,5.14
2019-05-15T01:45:25.834Z,5.34
2019-05-15T01:47:58.580Z,5.24
2019-05-15T01:50:26.130Z,5.18
2019-05-15T01:52:55.400Z,5.15
2019-05-15T01:55:23.777Z,5.13
2019-05-15T01:57:58.058Z,5.24
2019-05-15T02:00:28.209Z,5.13
2019-05-15T02:02:59.414Z,4.99
2019-05-15T02:05:28.284Z,4.97
2019-05-15T02:07:58.545Z,4.98
2019-05-15T02:10:30.005Z,4.92
2019-05-15T02:15:32.561Z,4.92
2019-05-15T02:18:08.380Z,4.99
2019-05-15T02:20:35.465Z,4.97
2019-05-15T02:23:11.738Z,4.95
2019-05-15T02:25:38.602Z,4.96
2019-05-15T02:28:04.798Z,4.92
2019-05-15T02:30:34.228Z,4.76
2019-05-15T02:35:39.410Z,5.03
2019-05-15T02:38:10.333Z,4.89
2019-05-15T02:40:35.429Z,4.85
2019-05-15T02:45:42.768Z,4.91
2019-05-15T02:48:10.886Z,4.87
2019-05-15T02:50:39.540Z,4.79
2019-05-15T02:53:09.973Z,4.76
2019-05-15T02:55:35.946Z,4.78
2019-05-15T02:58:04.296Z,4.81
2019-05-15T03:00:46.017Z,4.86
2019-05-15T03:03:02.009Z,4.84
2019-05-15T03:05:30.286Z,4.86
2019-05-15T03:10:35.850Z,4.93
2019-05-15T03:13:04.290Z,4.85
2019-05-15T03:15:32.636Z,4.82
2019-05-15T03:20:40.652Z,4.91
2019-05-15T03:23:10.248Z,4.88
2019-05-15T03:25:40.497Z,4.89
2019-05-15T03:28:10.082Z,4.89
2019-05-15T03:31:06.891Z,4.90
2019-05-15T03:35:42.873Z,5.03
2019-05-15T03:38:09.364Z,5.07
2019-05-15T03:40:39.708Z,4.99
2019-05-15T03:43:05.512Z,5.08
2019-05-15T03:45:35.787Z,4.92
2019-05-15T03:48:09.379Z,4.94
2019-05-15T03:50:35.392Z,5.06
2019-05-15T03:53:03.729Z,4.92
2019-05-15T03:55:32.067Z,4.91
2019-05-15T03:58:04.137Z,4.86
2019-05-15T04:00:32.541Z,4.85
2019-05-15T04:03:04.804Z,5.18
2019-05-15T04:05:33.151Z,4.97
2019-05-15T04:08:11.300Z,4.94
2019-05-15T04:10:39.842Z,4.98
2019-05-15T04:13:09.405Z,4.92
2019-05-15T04:15:35.291Z,4.96
2019-05-15T04:18:03.667Z,5.01
2019-05-15T04:20:32.085Z,5.05
2019-05-15T04:25:40.595Z,5.01
2019-05-15T04:28:09.937Z,5.16
2019-05-15T04:30:39.207Z,5.04
2019-05-15T04:33:09.595Z,5.12
2019-05-15T04:35:35.090Z,5.10
2019-05-15T04:38:03.432Z,5.10
2019-05-15T04:40:31.839Z,5.16
2019-05-15T04:43:02.096Z,5.02
2019-05-15T04:45:34.622Z,5.07
2019-05-15T04:48:03.447Z,5.02
2019-05-15T04:50:31.807Z,5.14
2019-05-15T04:53:00.137Z,5.09
2019-05-15T04:58:03.637Z,5.26
2019-05-15T05:00:49.515Z,5.21
2019-05-15T05:03:14.913Z,5.43
2019-05-15T05:05:43.455Z,5.51
2019-05-15T05:08:11.852Z,5.37
2019-05-15T05:10:40.191Z,5.49
2019-05-15T05:13:08.910Z,5.55
2019-05-15T05:15:38.927Z,5.88
2019-05-15T05:18:05.435Z,6.20
2019-05-15T05:20:33.740Z,5.83
2019-05-15T05:23:08.411Z,5.96
2019-05-15T05:25:34.561Z,6.03
2019-05-15T05:28:12.874Z,5.98
2019-05-15T05:30:41.269Z,5.80
2019-05-15T05:33:09.608Z,5.75
2019-05-15T05:35:38.730Z,5.92
2019-05-15T05:38:07.836Z,5.82
2019-05-15T05:40:34.708Z,5.80
2019-05-15T05:43:04.050Z,5.79
2019-05-15T05:45:32.368Z,5.86
2019-05-15T05:48:08.700Z,6.02
2019-05-15T05:50:34.935Z,6.14
2019-05-15T05:55:40.493Z,6.12
2019-05-15T05:58:10.809Z,6.09
2019-05-15T06:00:40.099Z,6.09
2019-05-15T06:03:10.435Z,6.68
2019-05-15T06:05:42.295Z,6.69
2019-05-15T06:08:22.496Z,6.44
2019-05-15T06:11:10.064Z,6.14
2019-05-15T06:13:38.418Z,6.15
2019-05-15T06:16:08.633Z,6.10
2019-05-15T06:18:38.876Z,6.27
2019-05-15T06:21:29.981Z,6.21
2019-05-15T06:24:08.273Z,6.24
2019-05-15T06:26:34.806Z,6.56
2019-05-15T06:29:17.953Z,7.01
2019-05-15T06:32:15.049Z,6.82
2019-05-15T06:34:43.387Z,6.89
2019-05-15T06:37:11.733Z,7.27
2019-05-15T06:39:59.783Z,7.26
2019-05-15T06:42:28.411Z,6.62
2019-05-15T06:45:03.606Z,6.32
2019-05-15T06:47:39.445Z,6.17
2019-05-15T06:50:09.608Z,6.10
2019-05-15T06:52:41.391Z,5.99
2019-05-15T06:57:48.506Z,6.50
2019-05-15T07:00:15.278Z,6.59
2019-05-15T07:02:53.385Z,6.45
2019-05-15T07:05:22.649Z,6.58
2019-05-15T07:08:03.900Z,6.98
2019-05-15T07:10:34.387Z,6.83
2019-05-15T07:13:08.845Z,6.95
2019-05-15T07:15:53.712Z,6.93
2019-05-15T07:18:22.046Z,6.92
2019-05-15T07:20:50.408Z,6.68
2019-05-15T07:23:19.146Z,6.22
2019-05-15T07:25:49.730Z,5.99
2019-05-15T07:28:17.926Z,6.57
2019-05-15T07:30:49.498Z,6.41
2019-05-15T07:33:35.268Z,6.77
2019-05-15T07:38:28.194Z,6.23
2019-05-15T07:41:03.771Z,6.49
2019-05-15T07:43:33.253Z,6.98
2019-05-15T07:46:08.446Z,7.06
2019-05-15T07:48:58.459Z,6.88
2019-05-15T07:51:48.603Z,7.00
2019-05-15T07:54:15.290Z,7.05
2019-05-15T07:56:55.022Z,7.51
2019-05-15T07:59:27.975Z,7.48
2019-05-15T08:04:57.685Z,7.50
2019-05-15T08:07:38.983Z,7.51
2019-05-15T08:10:08.701Z,7.54
2019-05-15T08:15:11.492Z,8.28
2019-05-15T08:20:33.748Z,8.42
2019-05-15T08:23:03.047Z,8.28
2019-05-15T08:25:38.969Z,8.00
2019-05-15T08:28:08.864Z,8.50
2019-05-15T08:30:38.156Z,8.56
2019-05-15T08:33:04.598Z,8.25
2019-05-15T08:35:35.718Z,8.52
2019-05-15T08:38:05.278Z,8.62
2019-05-15T08:43:11.587Z,9.15
2019-05-15T08:45:42.369Z,8.93
2019-05-15T08:48:11.593Z,8.90
2019-05-15T08:51:05.772Z,9.29
2019-05-15T08:56:10.583Z,9.94
2019-05-15T08:58:38.922Z,9.62
2019-05-15T09:01:09.766Z,9.92
2019-05-15T09:06:12.284Z,11.00
2019-05-15T09:08:45.629Z,10.47
2019-05-15T09:11:14.148Z,9.79
2019-05-15T09:13:53.731Z,10.12
2019-05-15T09:16:18.462Z,10.53
2019-05-15T09:18:48.528Z,11.22
2019-05-15T09:21:16.148Z,11.12
2019-05-15T09:26:31.484Z,12.42
2019-05-15T09:29:00.747Z,12.99
2019-05-15T09:31:58.667Z,13.31
2019-05-15T09:37:02.744Z,12.87
2019-05-15T09:39:39.385Z,12.80
2019-05-15T09:42:09.410Z,10.87
2019-05-15T09:44:45.087Z,12.66
2019-05-15T09:47:13.479Z,12.63
2019-05-15T09:49:43.832Z,13.35
2019-05-15T09:52:12.312Z,11.88
2019-05-15T09:57:18.809Z,12.45
2019-05-15T09:59:48.682Z,13.38
2019-05-15T10:02:19.598Z,12.50
2019-05-15T10:05:06.673Z,12.41
2019-05-15T10:10:08.679Z,13.02
2019-05-15T10:12:38.621Z,13.67
2019-05-15T10:15:10.878Z,13.99
2019-05-15T10:17:39.884Z,15.09
2019-05-15T10:20:11.707Z,15.90
2019-05-15T10:22:58.880Z,13.81
2019-05-15T10:28:04.718Z,14.14
2019-05-15T10:31:00.164Z,14.53
2019-05-15T10:33:58.298Z,16.40
2019-05-15T10:36:30.103Z,15.75
2019-05-15T10:44:12.934Z,14.10
2019-05-15T10:46:48.344Z,12.10
2019-05-15T10:49:15.225Z,14.52
2019-05-15T10:52:00.690Z,15.74
2019-05-15T10:57:06.168Z,11.59
2019-05-15T11:00:01.653Z,12.68
2019-05-15T11:02:39.488Z,13.65
2019-05-15T11:05:09.456Z,12.34
2019-05-15T11:07:42.175Z,12.98
2019-05-15T11:10:10.559Z,14.74
2019-05-15T11:12:58.207Z,15.44
2019-05-15T11:18:02.839Z,16.11
2019-05-15T11:20:41.345Z,16.16
2019-05-15T11:23:08.198Z,17.13
2019-05-15T11:28:12.716Z,16.63
2019-05-15T11:33:18.913Z,17.38
2019-05-15T11:36:05.451Z,18.45
2019-05-15T11:38:53.757Z,17.17
2019-05-15T11:41:42.161Z,15.91
2019-05-15T11:44:11.402Z,14.29
2019-05-15T11:46:43.373Z,14.85
2019-05-15T11:49:13.678Z,15.28
2019-05-15T11:51:49.167Z,15.74
2019-05-15T11:54:18.918Z,15.38
2019-05-15T11:59:48.525Z,17.52
2019-05-15T12:02:18.649Z,18.59
2019-05-15T12:07:25.374Z,17.56
2019-05-15T12:09:58.982Z,16.64
2019-05-15T12:12:38.810Z,15.49
2019-05-15T12:15:06.862Z,15.61
2019-05-15T12:17:39.158Z,15.18
2019-05-15T12:20:07.276Z,15.28
2019-05-15T12:22:39.429Z,15.71
2019-05-15T12:25:09.681Z,15.93
2019-05-15T12:27:39.569Z,16.48
2019-05-15T12:30:09.981Z,16.38
2019-05-15T12:32:50.001Z,15.18
2019-05-15T12:35:20.519Z,15.18
2019-05-15T12:37:58.784Z,14.80
2019-05-15T13:00:51.036Z,12.51
2019-05-15T13:03:28.683Z,14.02
2019-05-15T13:05:59.639Z,12.73
2019-05-15T13:08:29.144Z,12.41
2019-05-15T13:10:58.027Z,12.58
2019-05-15T13:13:28.379Z,12.94
2019-05-15T13:16:08.630Z,13.23
2019-05-15T13:18:38.786Z,13.15
2019-05-15T13:21:20.876Z,13.36
2019-05-15T13:26:29.898Z,13.84
2019-05-15T13:28:58.582Z,14.02
2019-05-15T13:31:28.459Z,14.24
2019-05-15T13:34:21.436Z,14.32
2019-05-15T13:37:04.477Z,14.33
2019-05-15T13:39:32.837Z,14.57
2019-05-15T13:42:18.554Z,13.76
2019-05-15T13:44:47.813Z,13.98
2019-05-15T13:47:18.171Z,14.64
2019-05-15T13:52:24.791Z,14.56
2019-05-15T13:54:58.464Z,14.40
2019-05-15T13:57:48.695Z,12.08
2019-05-15T14:00:17.511Z,12.71
2019-05-15T14:02:49.761Z,11.38
2019-05-15T14:05:20.017Z,12.45
2019-05-15T14:07:49.744Z,12.55
2019-05-15T14:10:18.099Z,13.37
2019-05-15T14:15:21.481Z,13.33
2019-05-15T14:20:49.088Z,13.78
2019-05-15T14:23:18.476Z,12.33
2019-05-15T14:25:44.970Z,11.19
2019-05-15T14:28:13.344Z,11.03
2019-05-15T14:30:58.906Z,12.20
2019-05-15T14:33:29.273Z,12.66
2019-05-15T14:35:59.068Z,12.74
2019-05-15T14:38:30.630Z,12.92
2019-05-15T14:43:44.148Z,13.46
2019-05-15T14:46:12.761Z,13.58
2019-05-15T14:48:42.277Z,12.44
2019-05-15T14:51:10.660Z,13.18
2019-05-15T14:56:21.232Z,13.25
2019-05-15T14:58:51.505Z,13.46
2019-05-15T15:01:20.928Z,13.51
2019-05-15T15:04:00.465Z,13.02
2019-05-15T15:06:41.958Z,13.21
2019-05-15T15:09:10.429Z,13.10
2019-05-15T15:14:15.047Z,12.26
2019-05-15T15:16:43.461Z,12.51
2019-05-15T15:21:48.665Z,12.48
2019-05-15T15:24:18.923Z,13.06
2019-05-15T15:26:53.371Z,13.01
2019-05-15T15:31:58.960Z,12.39
2019-05-15T15:34:29.723Z,12.61
2019-05-15T15:37:10.169Z,12.64
2019-05-15T15:39:38.751Z,12.81
2019-05-15T15:42:12.836Z,12.25
2019-05-15T15:44:41.457Z,12.62
2019-05-15T15:47:13.753Z,12.73
2019-05-15T15:49:42.127Z,13.03
2019-05-15T15:52:18.101Z,12.33
2019-05-15T15:54:44.715Z,11.79
2019-05-15T15:59:49.127Z,11.45
2019-05-15T16:02:35.501Z,12.38
2019-05-15T16:05:08.110Z,12.75
2019-05-15T16:07:37.982Z,12.51
2019-05-15T16:12:40.902Z,11.61
2019-05-15T16:15:13.168Z,11.93
2019-05-15T16:19:20.623Z,11.78
2019-05-15T16:21:50.998Z,11.88
2019-05-15T16:24:21.840Z,11.36
2019-05-15T16:26:50.033Z,11.59
2019-05-15T16:32:00.715Z,11.68
2019-05-15T16:34:32.229Z,11.74
2019-05-15T16:37:08.894Z,11.40
2019-05-15T16:39:38.236Z,11.52
2019-05-15T16:42:06.824Z,11.84
2019-05-15T16:47:18.454Z,11.59
2019-05-15T16:49:45.672Z,11.40
2019-05-15T16:52:14.040Z,11.46
2019-05-15T16:54:42.435Z,11.73
2019-05-15T16:57:18.432Z,11.67
2019-05-15T16:59:48.047Z,11.22
2019-05-15T17:02:20.334Z,11.01
2019-05-15T17:04:48.929Z,11.17
2019-05-15T17:07:18.235Z,10.52
2019-05-15T17:09:45.479Z,10.55
2019-05-15T17:12:13.868Z,10.55
2019-05-15T17:14:42.200Z,10.60
2019-05-15T17:17:10.630Z,10.56
2019-05-15T17:19:39.037Z,10.67
2019-05-15T17:22:09.484Z,10.60
2019-05-15T17:24:38.715Z,10.75
2019-05-15T17:27:22.475Z,10.44
2019-05-15T17:32:32.182Z,10.36
2019-05-15T17:37:40.664Z,10.22
2019-05-15T17:40:09.995Z,9.98
2019-05-15T17:42:39.223Z,9.90
2019-05-15T17:45:28.285Z,9.77
2019-05-15T17:47:59.760Z,9.61
2019-05-15T17:53:11.509Z,9.70
2019-05-15T17:55:39.938Z,9.65
2019-05-15T17:58:31.897Z,9.57
2019-05-15T18:01:19.330Z,9.61
2019-05-15T18:03:48.591Z,9.70
2019-05-15T18:06:29.079Z,9.57
2019-05-15T18:11:33.407Z,9.59
2019-05-15T18:16:47.774Z,9.48
2019-05-15T18:19:31.737Z,9.55
2019-05-15T18:22:10.977Z,9.43
2019-05-15T18:24:39.336Z,9.51
2019-05-15T18:29:53.867Z,9.33
2019-05-15T18:34:59.483Z,9.30
2019-05-15T18:37:33.930Z,9.09
2019-05-15T18:40:10.272Z,9.04
2019-05-15T18:45:26.239Z,8.99
2019-05-15T18:47:54.580Z,8.90
2019-05-15T18:50:41.225Z,8.91
2019-05-15T18:53:10.474Z,8.84
2019-05-15T18:55:42.292Z,8.89
2019-05-15T18:58:34.550Z,8.57
2019-05-15T19:01:09.085Z,8.72
2019-05-15T19:03:41.214Z,8.87
2019-05-15T19:06:11.533Z,8.77
2019-05-15T19:11:28.910Z,8.86
2019-05-15T19:13:55.739Z,8.93
2019-05-15T19:16:24.073Z,8.78
2019-05-15T19:18:53.426Z,8.90
2019-05-15T19:24:10.717Z,8.68
2019-05-15T19:26:44.846Z,8.40
2019-05-15T19:31:49.445Z,8.73
2019-05-15T19:34:38.775Z,8.73
2019-05-15T19:37:08.750Z,8.62
2019-05-15T19:39:39.107Z,8.53
2019-05-15T19:42:08.895Z,8.40
2019-05-15T19:47:10.071Z,8.56
2019-05-15T19:49:38.435Z,8.37
2019-05-15T19:52:08.697Z,8.47
2019-05-15T19:57:11.273Z,8.60
2019-05-15T19:59:48.821Z,8.24
2019-05-15T20:02:15.450Z,8.02
2019-05-15T20:04:43.848Z,8.11
2019-05-15T20:07:12.304Z,8.07
2019-05-15T20:09:47.720Z,8.14
2019-05-15T20:12:14.434Z,7.95
2019-05-15T20:17:23.042Z,8.09
2019-05-15T20:19:52.302Z,8.08
2019-05-15T20:22:23.685Z,7.84
2019-05-15T20:24:58.347Z,7.86
2019-05-15T20:27:28.081Z,7.95
2019-05-15T20:29:56.208Z,8.01
2019-05-15T20:32:24.601Z,8.19
2019-05-15T20:34:53.956Z,8.24
2019-05-15T20:37:22.351Z,8.34
2019-05-15T20:39:51.690Z,8.45
2019-05-15T20:42:20.034Z,8.47
2019-05-15T20:44:48.695Z,8.41
2019-05-15T20:47:18.741Z,8.21
2019-05-15T20:49:48.584Z,8.09
2019-05-15T20:52:20.877Z,7.97
2019-05-15T20:54:45.210Z,8.07
2019-05-15T20:57:13.693Z,8.00
2019-05-15T20:59:43.056Z,8.07
2019-05-15T21:02:12.328Z,8.03
2019-05-15T21:04:48.778Z,7.80
2019-05-15T21:07:27.618Z,7.85
2019-05-15T21:09:48.375Z,7.88
2019-05-15T21:12:14.870Z,7.97
2019-05-15T21:14:44.161Z,7.67
2019-05-15T21:17:12.871Z,7.80
2019-05-15T21:19:44.650Z,7.90
2019-05-15T21:22:13.032Z,8.01
2019-05-15T21:24:41.426Z,7.87
2019-05-15T21:29:43.978Z,7.86
2019-05-15T21:32:14.379Z,7.84
2019-05-15T21:34:44.415Z,7.80
2019-05-15T21:37:12.062Z,7.89
2019-05-15T21:39:41.275Z,7.96
2019-05-15T21:42:10.656Z,7.91
2019-05-15T21:44:39.031Z,7.99
2019-05-15T21:49:43.631Z,8.08
2019-05-15T21:52:11.987Z,7.96
2019-05-15T21:54:40.398Z,7.78
2019-05-15T21:57:29.112Z,7.79
2019-05-15T21:59:38.388Z,7.89
2019-05-15T22:02:05.504Z,7.79
2019-05-15T22:04:51.288Z,7.73
2019-05-15T22:07:08.862Z,7.77
2019-05-15T22:09:38.275Z,7.92
2019-05-15T22:12:06.628Z,7.77
2019-05-15T22:14:34.965Z,7.72
2019-05-15T22:19:39.552Z,7.77
2019-05-15T22:22:08.925Z,7.85
2019-05-15T22:24:37.885Z,7.81
2019-05-15T22:29:39.919Z,8.14
2019-05-15T22:32:08.311Z,8.11
2019-05-15T22:34:36.686Z,7.84
2019-05-15T22:37:05.027Z,7.78
2019-05-15T22:39:35.356Z,7.71
2019-05-15T22:42:03.725Z,7.75
2019-05-15T22:44:32.163Z,7.62
2019-05-15T22:47:01.447Z,7.70
2019-05-15T22:49:29.826Z,7.84
2019-05-15T22:51:58.249Z,7.63
2019-05-15T22:54:28.075Z,7.58
2019-05-15T22:56:55.003Z,7.78
2019-05-15T23:02:00.582Z,7.43
2019-05-15T23:04:29.995Z,7.70
2019-05-15T23:06:58.345Z,7.63
2019-05-15T23:12:10.829Z,7.63
2019-05-15T23:14:37.957Z,7.38
2019-05-15T23:17:08.001Z,7.39
2019-05-15T23:22:08.448Z,7.55
2019-05-15T23:24:38.574Z,7.29
2019-05-15T23:27:04.898Z,7.34
2019-05-15T23:29:34.145Z,7.23
2019-05-15T23:32:02.537Z,7.28
2019-05-15T23:34:30.905Z,7.45
2019-05-15T23:37:00.294Z,7.66
2019-05-15T23:39:28.640Z,7.52
2019-05-15T23:42:04.943Z,7.51
2019-05-15T23:44:33.293Z,7.14
2019-05-15T23:47:01.655Z,7.19
2019-05-15T23:49:30.013Z,7.41
2019-05-15T23:51:58.374Z,7.32
2019-05-15T23:54:28.814Z,7.41
2019-05-15T23:56:58.426Z,7.39
2019-05-15T23:59:25.528Z,7.21
